sensor_id;sensor_type;location;lat;lon;timestamp;pressure;altitude;pressure_sealevel;temperature;humidity
28079;BME280;15388;42.238;24.684;2022-11-21T00:00:14;98283.41;;;13.47;100.00
28079;BME280;15388;42.238;24.684;2022-11-21T00:02:39;98306.91;;;13.52;100.00
28079;BME280;15388;42.238;24.684;2022-11-21T00:05:04;98303.50;;;13.43;100.00
28079;BME280;15388;42.238;24.684;2022-11-21T00:07:30;98299.34;;;13.41;100.00
28079;BME280;15388;42.238;24.684;2022-11-21T00:09:55;98268.03;;;13.34;100.00
28079;BME280;15388;42.238;24.684;2022-11-21T00:12:20;98247.66;;;13.33;100.00
28079;BME280;15388;42.238;24.684;2022-11-21T00:14:46;98252.44;;;13.38;100.00
28079;BME280;15388;42.238;24.684;2022-11-21T00:17:11;98226.47;;;13.32;100.00
28079;BME280;15388;42.238;24.684;2022-11-21T00:19:36;98213.50;;;13.29;100.00
28079;BME280;15388;42.238;24.684;2022-11-21T00:22:01;98214.69;;;13.41;100.00
28079;BME280;15388;42.238;24.684;2022-11-21T00:24:27;98195.22;;;13.47;100.00
28079;BME280;15388;42.238;24.684;2022-11-21T00:26:52;98169.50;;;13.46;100.00
28079;BME280;15388;42.238;24.684;2022-11-21T00:29:17;98144.56;;;13.54;100.00
28079;BME280;15388;42.238;24.684;2022-11-21T00:31:43;98123.22;;;13.61;100.00
28079;BME280;15388;42.238;24.684;2022-11-21T00:34:08;98118.34;;;13.65;100.00
28079;BME280;15388;42.238;24.684;2022-11-21T00:36:33;98112.16;;;13.64;100.00
28079;BME280;15388;42.238;24.684;2022-11-21T00:38:58;98101.72;;;13.69;100.00
28079;BME280;15388;42.238;24.684;2022-11-21T00:41:24;98111.41;;;13.70;100.00
28079;BME280;15388;42.238;24.684;2022-11-21T00:43:49;98138.69;;;13.66;100.00
28079;BME280;15388;42.238;24.684;2022-11-21T00:46:14;98151.63;;;13.62;100.00
28079;BME280;15388;42.238;24.684;2022-11-21T00:48:39;98168.72;;;13.31;100.00
28079;BME280;15388;42.238;24.684;2022-11-21T00:51:05;98160.41;;;13.04;100.00
28079;BME280;15388;42.238;24.684;2022-11-21T00:53:30;98172.94;;;12.88;100.00
28079;BME280;15388;42.238;24.684;2022-11-21T00:55:55;98170.84;;;12.83;100.00
28079;BME280;15388;42.238;24.684;2022-11-21T00:58:21;98170.00;;;12.83;100.00
28079;BME280;15388;42.238;24.684;2022-11-21T01:00:47;98185.09;;;12.76;100.00
28079;BME280;15388;42.238;24.684;2022-11-21T01:03:12;98197.97;;;12.57;100.00
28079;BME280;15388;42.238;24.684;2022-11-21T01:05:37;98209.72;;;12.47;100.00
28079;BME280;15388;42.238;24.684;2022-11-21T01:08:02;98206.03;;;12.48;100.00
28079;BME280;15388;42.238;24.684;2022-11-21T01:10:28;98221.41;;;12.46;100.00
28079;BME280;15388;42.238;24.684;2022-11-21T01:12:53;98247.38;;;12.53;100.00
28079;BME280;15388;42.238;24.684;2022-11-21T01:15:18;98249.22;;;12.52;100.00
28079;BME280;15388;42.238;24.684;2022-11-21T01:17:44;98269.00;;;12.58;100.00
28079;BME280;15388;42.238;24.684;2022-11-21T01:20:09;98283.94;;;12.67;100.00
28079;BME280;15388;42.238;24.684;2022-11-21T01:22:34;98222.09;;;12.79;100.00
28079;BME280;15388;42.238;24.684;2022-11-21T01:25:00;98236.19;;;12.88;100.00
28079;BME280;15388;42.238;24.684;2022-11-21T01:27:25;98252.56;;;12.84;100.00
28079;BME280;15388;42.238;24.684;2022-11-21T01:29:50;98240.69;;;12.87;100.00
28079;BME280;15388;42.238;24.684;2022-11-21T01:32:16;98241.97;;;12.91;100.00
28079;BME280;15388;42.238;24.684;2022-11-21T01:34:41;98283.69;;;12.92;100.00
28079;BME280;15388;42.238;24.684;2022-11-21T01:37:07;98215.19;;;12.99;100.00
28079;BME280;15388;42.238;24.684;2022-11-21T01:39:32;98188.03;;;13.11;100.00
28079;BME280;15388;42.238;24.684;2022-11-21T01:41:58;98192.97;;;13.14;100.00
28079;BME280;15388;42.238;24.684;2022-11-21T01:44:24;98164.91;;;13.18;100.00
28079;BME280;15388;42.238;24.684;2022-11-21T01:46:50;98177.59;;;13.31;100.00
28079;BME280;15388;42.238;24.684;2022-11-21T01:54:28;98152.97;;;13.36;100.00
28079;BME280;15388;42.238;24.684;2022-11-21T01:59:21;98166.97;;;13.38;100.00
28079;BME280;15388;42.238;24.684;2022-11-21T02:01:49;98178.00;;;13.35;100.00
28079;BME280;15388;42.238;24.684;2022-11-21T02:04:15;98184.03;;;13.22;100.00
28079;BME280;15388;42.238;24.684;2022-11-21T02:06:41;98185.31;;;13.26;100.00
28079;BME280;15388;42.238;24.684;2022-11-21T02:09:07;98203.56;;;13.07;100.00
28079;BME280;15388;42.238;24.684;2022-11-21T02:11:35;98207.72;;;13.10;100.00
28079;BME280;15388;42.238;24.684;2022-11-21T02:14:02;98186.88;;;13.20;100.00
28079;BME280;15388;42.238;24.684;2022-11-21T02:16:27;98196.84;;;13.27;100.00
28079;BME280;15388;42.238;24.684;2022-11-21T02:18:53;98183.72;;;13.32;100.00
28079;BME280;15388;42.238;24.684;2022-11-21T02:21:21;98161.91;;;13.28;100.00
28079;BME280;15388;42.238;24.684;2022-11-21T02:23:59;98163.00;;;13.34;100.00
28079;BME280;15388;42.238;24.684;2022-11-21T02:26:26;98127.53;;;13.40;100.00
28079;BME280;15388;42.238;24.684;2022-11-21T02:28:51;98133.78;;;13.47;100.00
28079;BME280;15388;42.238;24.684;2022-11-21T02:31:17;98136.72;;;13.53;100.00
28079;BME280;15388;42.238;24.684;2022-11-21T02:33:42;98118.88;;;13.38;100.00
28079;BME280;15388;42.238;24.684;2022-11-21T02:36:26;98136.78;;;13.22;100.00
28079;BME280;15388;42.238;24.684;2022-11-21T02:38:55;98120.25;;;13.12;100.00
28079;BME280;15388;42.238;24.684;2022-11-21T02:41:21;98137.16;;;13.19;100.00
28079;BME280;15388;42.238;24.684;2022-11-21T02:43:51;98145.19;;;13.19;100.00
28079;BME280;15388;42.238;24.684;2022-11-21T02:46:19;98146.81;;;13.20;100.00
28079;BME280;15388;42.238;24.684;2022-11-21T02:48:45;98132.66;;;13.20;100.00
28079;BME280;15388;42.238;24.684;2022-11-21T02:51:10;98118.47;;;13.19;100.00
28079;BME280;15388;42.238;24.684;2022-11-21T02:53:35;98124.84;;;13.18;100.00
28079;BME280;15388;42.238;24.684;2022-11-21T02:56:00;98126.47;;;13.19;100.00
28079;BME280;15388;42.238;24.684;2022-11-21T02:58:26;98116.63;;;13.20;100.00
28079;BME280;15388;42.238;24.684;2022-11-21T03:00:51;98113.16;;;13.04;100.00
28079;BME280;15388;42.238;24.684;2022-11-21T03:03:16;98120.44;;;12.95;100.00
28079;BME280;15388;42.238;24.684;2022-11-21T03:05:42;98113.03;;;12.76;100.00
28079;BME280;15388;42.238;24.684;2022-11-21T03:08:07;98106.31;;;12.80;100.00
28079;BME280;15388;42.238;24.684;2022-11-21T03:10:32;98114.38;;;12.86;100.00
28079;BME280;15388;42.238;24.684;2022-11-21T03:12:58;98119.00;;;12.78;100.00
28079;BME280;15388;42.238;24.684;2022-11-21T03:15:30;98120.19;;;12.75;100.00
28079;BME280;15388;42.238;24.684;2022-11-21T03:17:56;98119.09;;;12.69;100.00
28079;BME280;15388;42.238;24.684;2022-11-21T03:20:22;98113.94;;;12.68;100.00
28079;BME280;15388;42.238;24.684;2022-11-21T03:22:47;98117.00;;;12.50;100.00
28079;BME280;15388;42.238;24.684;2022-11-21T03:25:13;98120.66;;;12.48;100.00
28079;BME280;15388;42.238;24.684;2022-11-21T03:27:38;98126.00;;;12.48;100.00
28079;BME280;15388;42.238;24.684;2022-11-21T03:30:04;98110.28;;;12.54;100.00
28079;BME280;15388;42.238;24.684;2022-11-21T03:32:29;98109.81;;;12.35;100.00
28079;BME280;15388;42.238;24.684;2022-11-21T03:34:54;98107.44;;;12.40;100.00
28079;BME280;15388;42.238;24.684;2022-11-21T03:37:20;98110.19;;;12.32;100.00
28079;BME280;15388;42.238;24.684;2022-11-21T03:39:45;98122.50;;;12.33;100.00
28079;BME280;15388;42.238;24.684;2022-11-21T03:42:10;98106.88;;;12.30;100.00
28079;BME280;15388;42.238;24.684;2022-11-21T03:44:36;98095.56;;;12.28;100.00
28079;BME280;15388;42.238;24.684;2022-11-21T03:47:01;98089.56;;;12.26;100.00
28079;BME280;15388;42.238;24.684;2022-11-21T03:49:26;98076.09;;;12.04;100.00
28079;BME280;15388;42.238;24.684;2022-11-21T03:51:51;98072.28;;;12.06;100.00
28079;BME280;15388;42.238;24.684;2022-11-21T03:54:16;98075.84;;;12.14;100.00
28079;BME280;15388;42.238;24.684;2022-11-21T03:56:42;98104.00;;;12.16;100.00
28079;BME280;15388;42.238;24.684;2022-11-21T03:59:07;98107.41;;;12.10;100.00
28079;BME280;15388;42.238;24.684;2022-11-21T04:01:32;98096.00;;;12.16;100.00
28079;BME280;15388;42.238;24.684;2022-11-21T04:03:58;98105.56;;;11.72;100.00
28079;BME280;15388;42.238;24.684;2022-11-21T04:06:24;98093.97;;;11.41;100.00
28079;BME280;15388;42.238;24.684;2022-11-21T04:08:49;98085.66;;;11.36;100.00
28079;BME280;15388;42.238;24.684;2022-11-21T04:11:15;98077.50;;;11.38;100.00
28079;BME280;15388;42.238;24.684;2022-11-21T04:13:40;98083.41;;;11.48;100.00
28079;BME280;15388;42.238;24.684;2022-11-21T04:16:06;98090.16;;;11.59;100.00
28079;BME280;15388;42.238;24.684;2022-11-21T04:18:32;98086.31;;;11.62;100.00
28079;BME280;15388;42.238;24.684;2022-11-21T04:21:05;98072.91;;;11.70;100.00
28079;BME280;15388;42.238;24.684;2022-11-21T04:23:30;98065.66;;;11.79;100.00
28079;BME280;15388;42.238;24.684;2022-11-21T04:25:56;98072.78;;;11.87;100.00
28079;BME280;15388;42.238;24.684;2022-11-21T04:28:21;98070.56;;;11.90;100.00
28079;BME280;15388;42.238;24.684;2022-11-21T04:30:47;98070.88;;;11.95;100.00
28079;BME280;15388;42.238;24.684;2022-11-21T04:33:12;98073.16;;;11.98;100.00
28079;BME280;15388;42.238;24.684;2022-11-21T04:35:38;98070.78;;;12.04;100.00
28079;BME280;15388;42.238;24.684;2022-11-21T04:38:04;98086.09;;;12.10;100.00
28079;BME280;15388;42.238;24.684;2022-11-21T04:40:29;98075.69;;;12.15;100.00
28079;BME280;15388;42.238;24.684;2022-11-21T04:42:54;98089.13;;;12.22;100.00
28079;BME280;15388;42.238;24.684;2022-11-21T04:45:19;98084.34;;;12.17;100.00
28079;BME280;15388;42.238;24.684;2022-11-21T04:47:45;98086.75;;;12.04;100.00
28079;BME280;15388;42.238;24.684;2022-11-21T04:50:12;98083.06;;;11.28;100.00
28079;BME280;15388;42.238;24.684;2022-11-21T04:52:37;98092.16;;;11.57;100.00
28079;BME280;15388;42.238;24.684;2022-11-21T04:55:03;98098.44;;;11.64;100.00
28079;BME280;15388;42.238;24.684;2022-11-21T04:57:29;98089.75;;;11.70;100.00
28079;BME280;15388;42.238;24.684;2022-11-21T04:59:54;98081.75;;;11.70;100.00
28079;BME280;15388;42.238;24.684;2022-11-21T05:02:19;98091.69;;;11.77;100.00
28079;BME280;15388;42.238;24.684;2022-11-21T05:04:45;98104.34;;;11.75;100.00
28079;BME280;15388;42.238;24.684;2022-11-21T05:07:10;98096.09;;;11.69;100.00
28079;BME280;15388;42.238;24.684;2022-11-21T05:09:35;98088.78;;;11.63;100.00
28079;BME280;15388;42.238;24.684;2022-11-21T05:12:01;98081.69;;;11.55;100.00
28079;BME280;15388;42.238;24.684;2022-11-21T05:14:45;98099.13;;;10.88;100.00
28079;BME280;15388;42.238;24.684;2022-11-21T05:17:10;98093.41;;;10.59;100.00
28079;BME280;15388;42.238;24.684;2022-11-21T05:19:35;98099.66;;;10.75;100.00
28079;BME280;15388;42.238;24.684;2022-11-21T05:22:00;98095.09;;;10.92;100.00
28079;BME280;15388;42.238;24.684;2022-11-21T05:24:26;98101.50;;;11.06;100.00
28079;BME280;15388;42.238;24.684;2022-11-21T05:26:51;98101.63;;;11.13;100.00
28079;BME280;15388;42.238;24.684;2022-11-21T05:29:17;98086.06;;;11.25;100.00
28079;BME280;15388;42.238;24.684;2022-11-21T05:31:43;98084.47;;;11.15;100.00
28079;BME280;15388;42.238;24.684;2022-11-21T05:34:08;98088.38;;;11.28;100.00
28079;BME280;15388;42.238;24.684;2022-11-21T05:36:33;98088.31;;;11.36;100.00
28079;BME280;15388;42.238;24.684;2022-11-21T05:38:58;98098.28;;;11.42;100.00
28079;BME280;15388;42.238;24.684;2022-11-21T05:41:24;98092.69;;;11.29;100.00
28079;BME280;15388;42.238;24.684;2022-11-21T05:43:49;98099.97;;;11.35;100.00
28079;BME280;15388;42.238;24.684;2022-11-21T05:46:15;98112.19;;;11.53;100.00
28079;BME280;15388;42.238;24.684;2022-11-21T05:48:41;98101.47;;;11.61;100.00
28079;BME280;15388;42.238;24.684;2022-11-21T05:51:07;98099.72;;;11.68;100.00
28079;BME280;15388;42.238;24.684;2022-11-21T05:53:33;98108.84;;;11.74;100.00
28079;BME280;15388;42.238;24.684;2022-11-21T05:56:05;98116.44;;;11.85;100.00
28079;BME280;15388;42.238;24.684;2022-11-21T05:58:31;98120.31;;;11.98;100.00
28079;BME280;15388;42.238;24.684;2022-11-21T06:00:56;98123.78;;;12.07;100.00
28079;BME280;15388;42.238;24.684;2022-11-21T06:03:22;98123.06;;;12.13;100.00
28079;BME280;15388;42.238;24.684;2022-11-21T06:06:01;98119.94;;;12.25;100.00
28079;BME280;15388;42.238;24.684;2022-11-21T06:08:27;98132.81;;;12.36;100.00
28079;BME280;15388;42.238;24.684;2022-11-21T06:10:53;98147.69;;;12.15;100.00
28079;BME280;15388;42.238;24.684;2022-11-21T06:13:18;98150.88;;;11.87;100.00
28079;BME280;15388;42.238;24.684;2022-11-21T06:15:48;98157.38;;;11.69;100.00
28079;BME280;15388;42.238;24.684;2022-11-21T06:18:13;98151.63;;;11.81;100.00
28079;BME280;15388;42.238;24.684;2022-11-21T06:20:38;98141.66;;;11.75;100.00
28079;BME280;15388;42.238;24.684;2022-11-21T06:23:04;98141.78;;;11.58;100.00
28079;BME280;15388;42.238;24.684;2022-11-21T06:25:29;98137.47;;;11.57;100.00
28079;BME280;15388;42.238;24.684;2022-11-21T06:27:54;98130.16;;;11.51;100.00
28079;BME280;15388;42.238;24.684;2022-11-21T06:30:19;98128.41;;;11.66;100.00
28079;BME280;15388;42.238;24.684;2022-11-21T06:32:45;98119.28;;;11.84;100.00
28079;BME280;15388;42.238;24.684;2022-11-21T06:35:10;98118.19;;;11.93;100.00
28079;BME280;15388;42.238;24.684;2022-11-21T06:37:35;98123.44;;;12.02;100.00
28079;BME280;15388;42.238;24.684;2022-11-21T06:40:00;98136.38;;;12.13;100.00
28079;BME280;15388;42.238;24.684;2022-11-21T06:42:26;98144.00;;;12.16;100.00
28079;BME280;15388;42.238;24.684;2022-11-21T06:44:51;98136.50;;;12.35;100.00
28079;BME280;15388;42.238;24.684;2022-11-21T06:47:17;98141.09;;;12.41;100.00
28079;BME280;15388;42.238;24.684;2022-11-21T06:49:42;98138.00;;;12.53;100.00
28079;BME280;15388;42.238;24.684;2022-11-21T06:52:07;98133.09;;;12.71;100.00
28079;BME280;15388;42.238;24.684;2022-11-21T06:54:33;98141.81;;;12.95;100.00
28079;BME280;15388;42.238;24.684;2022-11-21T06:56:58;98124.84;;;13.18;100.00
28079;BME280;15388;42.238;24.684;2022-11-21T06:59:23;98140.69;;;13.42;100.00
28079;BME280;15388;42.238;24.684;2022-11-21T07:01:48;98142.19;;;13.66;100.00
28079;BME280;15388;42.238;24.684;2022-11-21T07:04:14;98149.84;;;13.91;100.00
28079;BME280;15388;42.238;24.684;2022-11-21T07:06:39;98150.91;;;14.25;100.00
28079;BME280;15388;42.238;24.684;2022-11-21T07:09:04;98141.00;;;14.55;100.00
28079;BME280;15388;42.238;24.684;2022-11-21T07:11:29;98152.13;;;14.80;100.00
28079;BME280;15388;42.238;24.684;2022-11-21T07:13:55;98153.44;;;15.05;100.00
28079;BME280;15388;42.238;24.684;2022-11-21T07:16:20;98146.91;;;15.21;100.00
28079;BME280;15388;42.238;24.684;2022-11-21T07:18:45;98146.38;;;15.46;100.00
28079;BME280;15388;42.238;24.684;2022-11-21T07:21:11;98148.25;;;15.59;100.00
28079;BME280;15388;42.238;24.684;2022-11-21T07:23:36;98148.47;;;15.77;100.00
28079;BME280;15388;42.238;24.684;2022-11-21T07:26:06;98149.53;;;15.90;100.00
28079;BME280;15388;42.238;24.684;2022-11-21T07:28:31;98135.94;;;16.05;100.00
28079;BME280;15388;42.238;24.684;2022-11-21T07:30:57;98143.56;;;16.22;100.00
28079;BME280;15388;42.238;24.684;2022-11-21T07:33:23;98142.09;;;16.33;100.00
28079;BME280;15388;42.238;24.684;2022-11-21T07:35:48;98131.78;;;16.50;100.00
28079;BME280;15388;42.238;24.684;2022-11-21T07:38:13;98136.09;;;16.44;100.00
28079;BME280;15388;42.238;24.684;2022-11-21T07:40:39;98147.03;;;16.63;100.00
28079;BME280;15388;42.238;24.684;2022-11-21T07:43:04;98149.03;;;16.81;100.00
28079;BME280;15388;42.238;24.684;2022-11-21T07:45:30;98157.22;;;17.00;100.00
28079;BME280;15388;42.238;24.684;2022-11-21T07:47:56;98164.84;;;17.16;100.00
28079;BME280;15388;42.238;24.684;2022-11-21T07:50:21;98178.63;;;17.34;100.00
28079;BME280;15388;42.238;24.684;2022-11-21T07:52:47;98183.25;;;17.13;100.00
28079;BME280;15388;42.238;24.684;2022-11-21T07:55:12;98189.00;;;17.30;100.00
28079;BME280;15388;42.238;24.684;2022-11-21T07:57:37;98190.00;;;17.36;100.00
28079;BME280;15388;42.238;24.684;2022-11-21T08:00:03;98195.13;;;17.44;100.00
28079;BME280;15388;42.238;24.684;2022-11-21T08:02:28;98184.38;;;17.44;100.00
28079;BME280;15388;42.238;24.684;2022-11-21T08:04:53;98188.28;;;17.48;100.00
28079;BME280;15388;42.238;24.684;2022-11-21T08:07:19;98192.06;;;17.40;100.00
28079;BME280;15388;42.238;24.684;2022-11-21T08:09:45;98193.09;;;17.33;100.00
28079;BME280;15388;42.238;24.684;2022-11-21T08:12:11;98204.50;;;17.28;100.00
28079;BME280;15388;42.238;24.684;2022-11-21T08:14:36;98204.28;;;17.29;100.00
28079;BME280;15388;42.238;24.684;2022-11-21T08:17:02;98210.47;;;17.37;100.00
28079;BME280;15388;42.238;24.684;2022-11-21T08:19:28;98203.41;;;17.42;100.00
28079;BME280;15388;42.238;24.684;2022-11-21T08:21:53;98208.72;;;17.49;100.00
28079;BME280;15388;42.238;24.684;2022-11-21T08:24:18;98201.25;;;17.58;100.00
28079;BME280;15388;42.238;24.684;2022-11-21T08:26:43;98199.13;;;17.67;100.00
28079;BME280;15388;42.238;24.684;2022-11-21T08:29:09;98200.38;;;17.71;100.00
28079;BME280;15388;42.238;24.684;2022-11-21T08:31:35;98206.53;;;17.78;100.00
28079;BME280;15388;42.238;24.684;2022-11-21T08:34:01;98204.16;;;17.89;100.00
28079;BME280;15388;42.238;24.684;2022-11-21T08:36:26;98211.09;;;18.03;100.00
28079;BME280;15388;42.238;24.684;2022-11-21T08:38:51;98205.44;;;18.18;100.00
28079;BME280;15388;42.238;24.684;2022-11-21T08:41:17;98203.41;;;18.39;100.00
28079;BME280;15388;42.238;24.684;2022-11-21T08:44:00;98197.19;;;18.64;100.00
28079;BME280;15388;42.238;24.684;2022-11-21T08:46:26;98201.75;;;18.82;92.34
28079;BME280;15388;42.238;24.684;2022-11-21T08:48:55;98207.63;;;18.98;81.80
28079;BME280;15388;42.238;24.684;2022-11-21T08:51:20;98191.75;;;19.08;72.50
28079;BME280;15388;42.238;24.684;2022-11-21T08:53:45;98189.06;;;19.27;75.51
28079;BME280;15388;42.238;24.684;2022-11-21T08:56:11;98189.69;;;19.41;76.81
28079;BME280;15388;42.238;24.684;2022-11-21T08:58:36;98188.34;;;19.51;69.22
28079;BME280;15388;42.238;24.684;2022-11-21T09:01:01;98184.41;;;19.65;68.00
28079;BME280;15388;42.238;24.684;2022-11-21T09:03:26;98183.69;;;19.58;64.02
28079;BME280;15388;42.238;24.684;2022-11-21T09:05:54;98189.69;;;19.72;69.17
28079;BME280;15388;42.238;24.684;2022-11-21T09:08:19;98193.34;;;19.47;64.53
28079;BME280;15388;42.238;24.684;2022-11-21T09:10:44;98185.09;;;19.60;68.44
28079;BME280;15388;42.238;24.684;2022-11-21T09:13:10;98189.09;;;19.70;68.62
28079;BME280;15388;42.238;24.684;2022-11-21T09:15:36;98184.03;;;19.62;66.12
28079;BME280;15388;42.238;24.684;2022-11-21T09:18:19;98190.88;;;19.76;68.80
28079;BME280;15388;42.238;24.684;2022-11-21T09:20:45;98180.34;;;19.86;67.39
28079;BME280;15388;42.238;24.684;2022-11-21T09:23:11;98184.53;;;20.01;67.79
28079;BME280;15388;42.238;24.684;2022-11-21T09:25:37;98179.75;;;19.84;62.98
28079;BME280;15388;42.238;24.684;2022-11-21T09:28:02;98185.84;;;20.10;66.27
28079;BME280;15388;42.238;24.684;2022-11-21T09:30:28;98185.72;;;20.17;63.97
28079;BME280;15388;42.238;24.684;2022-11-21T09:32:53;98182.78;;;20.19;62.18
28079;BME280;15388;42.238;24.684;2022-11-21T09:35:23;98174.56;;;20.14;61.97
28079;BME280;15388;42.238;24.684;2022-11-21T09:37:48;98179.06;;;20.32;63.63
28079;BME280;15388;42.238;24.684;2022-11-21T09:40:15;98186.09;;;20.45;62.70
28079;BME280;15388;42.238;24.684;2022-11-21T09:45:19;98162.50;;;20.64;65.79
28079;BME280;15388;42.238;24.684;2022-11-21T09:47:48;98172.22;;;21.01;65.21
28079;BME280;15388;42.238;24.684;2022-11-21T09:52:40;98167.50;;;20.84;59.56
28079;BME280;15388;42.238;24.684;2022-11-21T09:55:20;98162.34;;;20.59;56.50
28079;BME280;15388;42.238;24.684;2022-11-21T09:57:47;98174.13;;;20.53;58.83
28079;BME280;15388;42.238;24.684;2022-11-21T10:00:23;98178.69;;;20.40;62.48
28079;BME280;15388;42.238;24.684;2022-11-21T10:02:52;98175.59;;;20.01;62.85
28079;BME280;15388;42.238;24.684;2022-11-21T10:05:40;98171.16;;;19.64;67.17
28079;BME280;15388;42.238;24.684;2022-11-21T10:08:06;98174.97;;;19.25;70.89
28079;BME280;15388;42.238;24.684;2022-11-21T10:10:52;98180.66;;;18.98;70.82
28079;BME280;15388;42.238;24.684;2022-11-21T10:13:22;98183.19;;;18.93;71.70
28079;BME280;15388;42.238;24.684;2022-11-21T10:24:21;98183.72;;;19.20;76.62
28079;BME280;15388;42.238;24.684;2022-11-21T10:31:23;98192.75;;;18.51;77.06
28079;BME280;15388;42.238;24.684;2022-11-21T10:33:51;98204.00;;;18.41;85.72
28079;BME280;15388;42.238;24.684;2022-11-21T10:38:44;98201.00;;;17.99;92.04
28079;BME280;15388;42.238;24.684;2022-11-21T10:46:38;98207.06;;;17.55;92.28
28079;BME280;15388;42.238;24.684;2022-11-21T10:49:04;98211.00;;;17.52;94.11
28079;BME280;15388;42.238;24.684;2022-11-21T10:51:44;98206.91;;;17.43;92.13
28079;BME280;15388;42.238;24.684;2022-11-21T10:54:10;98206.59;;;17.26;92.33
28079;BME280;15388;42.238;24.684;2022-11-21T10:56:55;98206.38;;;17.21;91.26
28079;BME280;15388;42.238;24.684;2022-11-21T10:59:24;98206.81;;;17.24;94.45
28079;BME280;15388;42.238;24.684;2022-11-21T11:01:57;98207.88;;;17.10;92.41
28079;BME280;15388;42.238;24.684;2022-11-21T11:04:23;98203.16;;;16.85;92.02
28079;BME280;15388;42.238;24.684;2022-11-21T11:06:49;98202.34;;;16.77;89.97
28079;BME280;15388;42.238;24.684;2022-11-21T11:09:48;98210.81;;;16.81;92.43
28079;BME280;15388;42.238;24.684;2022-11-21T11:14:48;98204.00;;;16.78;94.86
28079;BME280;15388;42.238;24.684;2022-11-21T11:17:14;98206.50;;;16.73;94.28
28079;BME280;15388;42.238;24.684;2022-11-21T11:19:39;98208.94;;;16.75;91.33
28079;BME280;15388;42.238;24.684;2022-11-21T11:22:27;98207.75;;;16.64;91.26
28079;BME280;15388;42.238;24.684;2022-11-21T11:24:53;98196.59;;;16.67;91.36
28079;BME280;15388;42.238;24.684;2022-11-21T11:27:18;98206.28;;;16.81;89.36
28079;BME280;15388;42.238;24.684;2022-11-21T11:29:50;98205.25;;;16.69;88.32
28079;BME280;15388;42.238;24.684;2022-11-21T11:32:16;98215.78;;;16.71;88.40
28079;BME280;15388;42.238;24.684;2022-11-21T11:34:58;98221.75;;;16.79;87.67
28079;BME280;15388;42.238;24.684;2022-11-21T11:40:05;98224.25;;;16.81;87.62
28079;BME280;15388;42.238;24.684;2022-11-21T11:42:39;98230.47;;;16.68;87.66
28079;BME280;15388;42.238;24.684;2022-11-21T11:45:29;98229.03;;;16.59;86.87
28079;BME280;15388;42.238;24.684;2022-11-21T11:48:13;98235.66;;;16.49;87.91
28079;BME280;15388;42.238;24.684;2022-11-21T11:55:40;98236.66;;;16.01;84.31
28079;BME280;15388;42.238;24.684;2022-11-21T11:58:10;98235.34;;;15.76;84.93
28079;BME280;15388;42.238;24.684;2022-11-21T12:00:40;98236.97;;;15.77;86.26
28079;BME280;15388;42.238;24.684;2022-11-21T12:03:16;98236.97;;;15.71;86.81
28079;BME280;15388;42.238;24.684;2022-11-21T12:06:04;98241.06;;;15.60;86.45
28079;BME280;15388;42.238;24.684;2022-11-21T12:10:58;98242.63;;;15.40;88.84
28079;BME280;15388;42.238;24.684;2022-11-21T12:13:43;98248.75;;;15.27;87.45
28079;BME280;15388;42.238;24.684;2022-11-21T12:16:11;98248.94;;;15.26;89.00
28079;BME280;15388;42.238;24.684;2022-11-21T12:18:39;98250.56;;;15.20;86.41
28079;BME280;15388;42.238;24.684;2022-11-21T12:21:16;98250.75;;;15.12;86.14
28079;BME280;15388;42.238;24.684;2022-11-21T12:31:48;98262.63;;;15.02;87.98
28079;BME280;15388;42.238;24.684;2022-11-21T12:36:52;98251.53;;;15.06;89.27
28079;BME280;15388;42.238;24.684;2022-11-21T12:50:26;98269.78;;;14.38;90.80
28079;BME280;15388;42.238;24.684;2022-11-21T12:54:01;98281.81;;;14.27;91.22
28079;BME280;15388;42.238;24.684;2022-11-21T12:56:41;98285.94;;;14.08;90.50
28079;BME280;15388;42.238;24.684;2022-11-21T12:59:04;98303.91;;;13.92;90.11
28079;BME280;15388;42.238;24.684;2022-11-21T13:02:16;98311.66;;;13.87;90.02
28079;BME280;15388;42.238;24.684;2022-11-21T13:04:21;98311.38;;;13.82;89.46
28079;BME280;15388;42.238;24.684;2022-11-21T13:06:49;98325.91;;;13.72;90.16
28079;BME280;15388;42.238;24.684;2022-11-21T13:09:16;98315.81;;;13.74;90.05
28079;BME280;15388;42.238;24.684;2022-11-21T13:16:55;98317.06;;;14.52;84.29
28079;BME280;15388;42.238;24.684;2022-11-21T13:22:06;98300.19;;;14.81;80.92
28079;BME280;15388;42.238;24.684;2022-11-21T13:27:32;98312.69;;;14.51;81.24
28079;BME280;15388;42.238;24.684;2022-11-21T13:45:36;98340.19;;;13.80;82.15
28079;BME280;15388;42.238;24.684;2022-11-21T13:48:03;98339.06;;;13.74;81.97
28079;BME280;15388;42.238;24.684;2022-11-21T13:50:38;98339.81;;;13.68;82.47
28079;BME280;15388;42.238;24.684;2022-11-21T13:55:36;98344.81;;;13.56;83.66
28079;BME280;15388;42.238;24.684;2022-11-21T14:08:28;98333.91;;;13.42;86.33
28079;BME280;15388;42.238;24.684;2022-11-21T14:10:54;98346.44;;;13.57;86.03
28079;BME280;15388;42.238;24.684;2022-11-21T14:16:17;98361.94;;;13.77;85.48
28079;BME280;15388;42.238;24.684;2022-11-21T14:18:44;98361.28;;;13.74;84.91
28079;BME280;15388;42.238;24.684;2022-11-21T14:21:20;98350.59;;;13.74;83.67
28079;BME280;15388;42.238;24.684;2022-11-21T14:23:46;98344.13;;;13.69;82.70
28079;BME280;15388;42.238;24.684;2022-11-21T14:26:15;98346.88;;;13.45;82.51
28079;BME280;15388;42.238;24.684;2022-11-21T14:28:44;98360.97;;;13.09;83.56
28079;BME280;15388;42.238;24.684;2022-11-21T14:31:10;98350.81;;;12.89;84.59
28079;BME280;15388;42.238;24.684;2022-11-21T14:33:37;98358.25;;;12.79;85.08